Time;durP1;ratioP1;P1;durP2;ratioP2;P2;SDS_P1;SDS_P2;PMS_P1;PMS_P2;Temp;Humidity;BMP_temperature;BMP_pressure;BME280_temperature;BME280_humidity;BME280_pressure;Samples;Min_cycle;Max_cycle;Signal;HPM_P1;HPM_P2
2021/11/27 00:01:52;;;;;;;8.75;6.45;;;;;;;;;;5012391;28;20026;-77
2021/11/27 00:04:18;;;;;;;7.40;5.95;;;;;;;;;;5010775;28;20030;-77
2021/11/27 00:06:45;;;;;;;8.52;6.00;;;;;;;;;;5010815;28;20370;-77
2021/11/27 00:09:11;;;;;;;7.15;5.90;;;;;;;;;;5012241;28;20026;-77
2021/11/27 00:11:40;;;;;;;6.75;5.75;;;;;;;;;;5011689;28;20536;-77
2021/11/27 00:14:07;;;;;;;7.50;6.18;;;;;;;;;;5012120;28;20151;-77
2021/11/27 00:16:35;;;;;;;7.78;5.93;;;;;;;;;;5011683;28;20481;-77
2021/11/27 00:19:01;;;;;;;8.15;5.90;;;;;;;;;;5010736;28;20072;-77
2021/11/27 00:21:27;;;;;;;7.30;5.57;;;;;;;;;;5011801;28;20029;-77
2021/11/27 00:23:54;;;;;;;6.82;5.50;;;;;;;;;;5012063;28;20480;-77
2021/11/27 00:26:20;;;;;;;7.15;5.90;;;;;;;;;;5011964;28;20103;-77
2021/11/27 00:28:47;;;;;;;6.57;5.60;;;;;;;;;;5011849;28;20057;-77
2021/11/27 00:31:19;;;;;;;8.20;5.75;;;;;;;;;;5012058;28;20026;-76
2021/11/27 00:33:46;;;;;;;8.13;6.22;;;;;;;;;;5011976;28;20034;-77
2021/11/27 00:36:13;;;;;;;7.13;5.68;;;;;;;;;;5011866;28;20036;-77
2021/11/27 00:38:39;;;;;;;6.30;5.25;;;;;;;;;;5011671;28;20032;-77
2021/11/27 00:41:05;;;;;;;9.75;6.03;;;;;;;;;;5011982;28;20025;-77
2021/11/27 00:43:32;;;;;;;7.25;5.45;;;;;;;;;;5010261;28;20026;-77
2021/11/27 00:45:58;;;;;;;8.20;6.55;;;;;;;;;;5011820;28;20022;-77
2021/11/27 00:48:25;;;;;;;6.63;5.63;;;;;;;;;;5011723;28;20026;-77
2021/11/27 00:50:53;;;;;;;8.85;7.22;;;;;;;;;;5011900;28;20088;-76
2021/11/27 00:53:20;;;;;;;9.18;6.70;;;;;;;;;;5011804;28;20036;-76
2021/11/27 00:55:46;;;;;;;8.73;5.68;;;;;;;;;;5011585;28;20030;-76
2021/11/27 00:58:13;;;;;;;9.60;6.63;;;;;;;;;;5011780;28;20080;-76
2021/11/27 01:00:44;;;;;;;8.23;7.30;;;;;;;;;;5012337;28;20029;-76
2021/11/27 01:03:11;;;;;;;8.77;6.53;;;;;;;;;;5015142;28;20029;-76
2021/11/27 01:05:37;;;;;;;8.65;7.18;;;;;;;;;;5014835;28;20029;-76
2021/11/27 01:08:04;;;;;;;8.55;6.75;;;;;;;;;;5015053;28;20025;-76
2021/11/27 01:10:31;;;;;;;8.60;6.50;;;;;;;;;;5014665;28;20497;-76
2021/11/27 01:12:57;;;;;;;7.85;6.43;;;;;;;;;;5015045;28;20466;-76
2021/11/27 01:33:44;;;;;;;6.90;6.20;;;;;;;;;;5109507;27;20437;-84
2021/11/27 01:36:10;;;;;;;8.05;6.30;;;;;;;;;;5125606;28;20036;-85
2021/11/27 01:38:37;;;;;;;7.72;6.18;;;;;;;;;;5109418;28;20437;-83
2021/11/27 01:41:03;;;;;;;7.85;6.38;;;;;;;;;;5108169;28;20036;-82
2021/11/27 01:43:30;;;;;;;7.43;6.20;;;;;;;;;;5108213;28;20031;-83
2021/11/27 01:45:57;;;;;;;8.27;6.53;;;;;;;;;;5109351;28;20103;-81
2021/11/27 01:48:23;;;;;;;9.27;6.28;;;;;;;;;;5109450;28;20416;-83
2021/11/27 01:50:52;;;;;;;7.82;6.55;;;;;;;;;;5109089;28;20378;-81
2021/11/27 01:53:18;;;;;;;8.55;6.55;;;;;;;;;;5109393;28;20544;-81
2021/11/27 01:55:45;;;;;;;8.95;7.32;;;;;;;;;;5108861;28;20032;-81
2021/11/27 01:58:11;;;;;;;12.13;7.28;;;;;;;;;;5109382;28;20123;-82
2021/11/27 02:00:40;;;;;;;7.80;6.65;;;;;;;;;;5108739;28;20545;-81
2021/11/27 02:03:06;;;;;;;8.52;6.88;;;;;;;;;;5109170;28;20558;-83
2021/11/27 02:05:32;;;;;;;9.23;6.93;;;;;;;;;;5108863;28;20034;-81
2021/11/27 02:07:58;;;;;;;8.80;6.85;;;;;;;;;;5107510;28;20056;-84
2021/11/27 02:10:25;;;;;;;8.63;6.78;;;;;;;;;;5108918;28;20501;-84
2021/11/27 02:12:51;;;;;;;10.13;7.30;;;;;;;;;;5108860;28;20023;-81
2021/11/27 02:15:18;;;;;;;12.00;8.60;;;;;;;;;;5108912;28;20478;-81
2021/11/27 02:17:44;;;;;;;9.10;6.72;;;;;;;;;;5108548;28;20020;-82
2021/11/27 02:20:10;;;;;;;10.77;8.75;;;;;;;;;;5108841;28;20539;-81
2021/11/27 02:22:37;;;;;;;9.75;8.65;;;;;;;;;;5108471;28;20031;-82
2021/11/27 02:25:08;;;;;;;8.65;6.75;;;;;;;;;;5108630;28;20023;-82
2021/11/27 02:27:34;;;;;;;8.82;6.82;;;;;;;;;;5108222;28;20031;-83
2021/11/27 02:30:01;;;;;;;8.63;6.50;;;;;;;;;;5108884;28;20028;-83
2021/11/27 02:32:27;;;;;;;11.25;7.57;;;;;;;;;;5100296;28;20056;-77
2021/11/27 02:34:53;;;;;;;9.02;7.15;;;;;;;;;;5094821;28;20462;-77
2021/11/27 02:37:19;;;;;;;9.05;7.45;;;;;;;;;;5094949;28;20127;-77
2021/11/27 02:39:46;;;;;;;9.80;7.30;;;;;;;;;;5094519;28;20390;-77
2021/11/27 02:42:12;;;;;;;9.70;6.47;;;;;;;;;;5094678;28;20386;-78
2021/11/27 02:44:38;;;;;;;10.50;7.50;;;;;;;;;;5094375;28;20036;-78
2021/11/27 02:47:05;;;;;;;10.70;7.85;;;;;;;;;;5094885;28;20609;-78
2021/11/27 02:49:31;;;;;;;9.45;7.53;;;;;;;;;;5092975;28;20016;-77
2021/11/27 02:51:58;;;;;;;15.05;10.10;;;;;;;;;;5094727;28;20040;-83
2021/11/27 02:54:26;;;;;;;13.18;9.95;;;;;;;;;;5094377;28;20099;-82
2021/11/27 02:56:52;;;;;;;13.05;9.43;;;;;;;;;;5094618;28;20036;-81
2021/11/27 02:59:21;;;;;;;19.33;14.88;;;;;;;;;;5094457;28;20099;-84
2021/11/27 03:01:49;;;;;;;10.25;8.05;;;;;;;;;;5094141;28;20474;-83
2021/11/27 03:04:16;;;;;;;13.43;9.43;;;;;;;;;;5094391;28;20039;-83
2021/11/27 03:06:43;;;;;;;11.52;8.82;;;;;;;;;;5094182;28;20048;-80
2021/11/27 03:09:09;;;;;;;26.13;22.33;;;;;;;;;;5094538;28;20020;-81
2021/11/27 03:11:36;;;;;;;20.80;16.38;;;;;;;;;;5093998;28;20343;-81
2021/11/27 03:14:03;;;;;;;9.68;7.75;;;;;;;;;;5094464;28;20356;-81
2021/11/27 03:16:32;;;;;;;9.13;7.30;;;;;;;;;;5093721;28;20363;-82
2021/11/27 03:18:58;;;;;;;9.23;7.40;;;;;;;;;;5094229;28;20102;-81
2021/11/27 03:21:24;;;;;;;9.32;7.28;;;;;;;;;;5093659;28;20040;-84
2021/11/27 03:23:51;;;;;;;11.35;7.07;;;;;;;;;;5092759;28;20497;-81
2021/11/27 03:26:17;;;;;;;11.50;9.25;;;;;;;;;;5092769;28;20030;-83
2021/11/27 03:28:44;;;;;;;23.77;19.65;;;;;;;;;;5094080;28;20024;-81
2021/11/27 03:31:10;;;;;;;26.65;20.85;;;;;;;;;;5094114;28;20043;-80
2021/11/27 03:33:36;;;;;;;10.27;8.32;;;;;;;;;;5093494;28;20073;-82
2021/11/27 03:36:03;;;;;;;9.80;6.70;;;;;;;;;;5093918;28;20028;-82
2021/11/27 03:38:29;;;;;;;11.13;7.15;;;;;;;;;;5093646;28;20479;-84
2021/11/27 03:40:56;;;;;;;16.17;13.07;;;;;;;;;;5093711;28;20115;-81
2021/11/27 03:43:22;;;;;;;10.55;7.75;;;;;;;;;;5091325;28;20054;-85
2021/11/27 03:45:48;;;;;;;9.13;6.60;;;;;;;;;;5092187;28;20035;-82
2021/11/27 03:48:16;;;;;;;9.35;7.35;;;;;;;;;;5093328;28;20032;-82
2021/11/27 03:50:45;;;;;;;8.55;7.32;;;;;;;;;;5093499;28;20028;-81
2021/11/27 03:53:15;;;;;;;10.07;7.32;;;;;;;;;;5093280;28;20034;-81
2021/11/27 03:55:42;;;;;;;8.00;6.85;;;;;;;;;;5092199;28;20494;-81
2021/11/27 03:58:08;;;;;;;8.00;7.20;;;;;;;;;;5091964;28;20047;-84
2021/11/27 04:00:34;;;;;;;7.75;6.95;;;;;;;;;;5093439;28;20035;-83
2021/11/27 04:03:00;;;;;;;9.75;7.63;;;;;;;;;;5093272;28;20031;-84
2021/11/27 04:05:27;;;;;;;7.60;6.80;;;;;;;;;;5092891;28;20374;-84
2021/11/27 04:07:57;;;;;;;8.35;6.63;;;;;;;;;;5093201;28;20077;-80
2021/11/27 04:10:24;;;;;;;8.27;6.75;;;;;;;;;;5092810;28;20031;-84
2021/11/27 04:12:50;;;;;;;8.32;6.55;;;;;;;;;;5093218;28;20054;-84
2021/11/27 04:15:16;;;;;;;16.55;12.73;;;;;;;;;;5092765;28;20102;-80
2021/11/27 04:17:42;;;;;;;16.92;12.38;;;;;;;;;;5093068;28;20085;-84
2021/11/27 04:20:09;;;;;;;10.18;7.82;;;;;;;;;;5092571;28;20020;-84
2021/11/27 04:22:35;;;;;;;8.68;6.82;;;;;;;;;;5092890;28;20403;-82
2021/11/27 04:25:01;;;;;;;6.60;5.13;;;;;;;;;;5092833;28;20028;-83
2021/11/27 04:27:28;;;;;;;7.32;6.00;;;;;;;;;;5092816;28;20024;-80
2021/11/27 04:29:54;;;;;;;8.45;6.78;;;;;;;;;;5092885;28;20387;-80
2021/11/27 04:32:20;;;;;;;19.08;13.77;;;;;;;;;;5091947;28;20525;-82
2021/11/27 04:34:46;;;;;;;9.07;6.97;;;;;;;;;;5092734;28;20106;-81
2021/11/27 04:37:14;;;;;;;6.30;5.10;;;;;;;;;;5092339;28;20493;-83
2021/11/27 04:39:41;;;;;;;8.18;5.15;;;;;;;;;;5092876;28;20390;-81
2021/11/27 04:42:08;;;;;;;6.75;5.28;;;;;;;;;;5092333;28;20032;-80
2021/11/27 04:44:34;;;;;;;10.35;6.72;;;;;;;;;;5091251;28;20434;-84
2021/11/27 04:47:01;;;;;;;9.50;7.03;;;;;;;;;;5091941;28;20028;-83
2021/11/27 04:49:27;;;;;;;21.67;16.17;;;;;;;;;;5092058;28;20024;-82
2021/11/27 04:51:53;;;;;;;9.20;6.50;;;;;;;;;;5091321;28;20024;-80
2021/11/27 04:54:19;;;;;;;7.40;6.20;;;;;;;;;;5090900;28;20035;-81
2021/11/27 04:56:45;;;;;;;9.82;6.60;;;;;;;;;;5092474;28;20024;-82
2021/11/27 04:59:12;;;;;;;9.68;7.40;;;;;;;;;;5091766;28;20052;-80
2021/11/27 05:01:38;;;;;;;14.05;10.88;;;;;;;;;;5092680;28;20046;-81
2021/11/27 05:04:04;;;;;;;12.60;8.07;;;;;;;;;;5092642;28;20034;-83
2021/11/27 05:06:31;;;;;;;11.15;8.25;;;;;;;;;;5093063;28;20020;-83
2021/11/27 05:08:57;;;;;;;10.10;7.85;;;;;;;;;;5092880;28;20046;-82
2021/11/27 05:11:24;;;;;;;11.82;8.05;;;;;;;;;;5092500;28;20055;-82
2021/11/27 05:13:50;;;;;;;9.32;7.25;;;;;;;;;;5092645;28;20028;-84
2021/11/27 05:16:16;;;;;;;9.55;7.82;;;;;;;;;;5091117;28;20065;-85
2021/11/27 05:18:43;;;;;;;8.77;7.40;;;;;;;;;;5092621;28;20114;-83
2021/11/27 05:21:10;;;;;;;8.77;6.85;;;;;;;;;;5092154;28;20036;-82
2021/11/27 05:23:36;;;;;;;10.43;6.95;;;;;;;;;;5094221;28;20020;-84
2021/11/27 05:26:03;;;;;;;10.05;7.53;;;;;;;;;;5095343;28;20576;-84
2021/11/27 05:28:29;;;;;;;7.95;6.57;;;;;;;;;;5095627;28;20032;-83
2021/11/27 05:30:55;;;;;;;67.40;46.90;;;;;;;;;;5095021;28;20107;-83
2021/11/27 05:36:06;;;;;;;23.30;17.10;;;;;;;;;;5092267;28;20082;-81
2021/11/27 05:38:32;;;;;;;48.35;35.13;;;;;;;;;;5092510;28;20035;-82
2021/11/27 05:40:58;;;;;;;13.07;10.48;;;;;;;;;;5092174;28;20554;-82
2021/11/27 05:43:24;;;;;;;9.55;7.75;;;;;;;;;;5092231;28;20028;-82
2021/11/27 05:45:50;;;;;;;20.77;11.35;;;;;;;;;;5092498;28;20395;-81
2021/11/27 05:48:16;;;;;;;12.15;8.27;;;;;;;;;;5092137;28;20028;-84
2021/11/27 05:50:42;;;;;;;7.40;6.60;;;;;;;;;;5091058;28;20484;-81
2021/11/27 05:53:10;;;;;;;10.98;8.57;;;;;;;;;;5092024;28;20529;-83
2021/11/27 05:55:36;;;;;;;10.15;8.73;;;;;;;;;;5090951;28;20470;-81
2021/11/27 05:58:02;;;;;;;23.48;13.48;;;;;;;;;;5092251;28;20031;-84
2021/11/27 06:00:28;;;;;;;18.52;13.15;;;;;;;;;;5092030;28;20032;-80
2021/11/27 06:02:54;;;;;;;14.98;11.05;;;;;;;;;;5092123;28;20064;-82
2021/11/27 06:05:23;;;;;;;58.53;39.83;;;;;;;;;;5090519;28;20387;-82
2021/11/27 06:07:50;;;;;;;33.95;25.02;;;;;;;;;;5094099;28;20027;-83
2021/11/27 06:10:16;;;;;;;11.68;9.95;;;;;;;;;;5095666;28;20044;-84
2021/11/27 06:12:42;;;;;;;12.75;10.18;;;;;;;;;;5095839;28;20035;-84
2021/11/27 06:15:08;;;;;;;9.40;7.28;;;;;;;;;;5095654;28;20539;-82
2021/11/27 06:17:35;;;;;;;13.20;8.90;;;;;;;;;;5094718;28;20494;-81
2021/11/27 06:20:01;;;;;;;17.38;10.35;;;;;;;;;;5095695;28;20024;-81
2021/11/27 06:22:27;;;;;;;15.35;9.95;;;;;;;;;;5095482;28;20461;-83
2021/11/27 06:24:53;;;;;;;10.43;7.43;;;;;;;;;;5095791;28;20035;-84
2021/11/27 06:27:19;;;;;;;10.70;8.00;;;;;;;;;;5095325;28;20391;-83
2021/11/27 06:29:46;;;;;;;14.27;10.15;;;;;;;;;;5095516;28;20398;-82
2021/11/27 06:32:12;;;;;;;9.60;7.45;;;;;;;;;;5095157;28;20395;-82
2021/11/27 06:34:39;;;;;;;16.52;13.07;;;;;;;;;;5094189;28;20024;-81
2021/11/27 06:37:05;;;;;;;25.65;19.42;;;;;;;;;;5095380;28;20081;-81
2021/11/27 06:39:31;;;;;;;26.00;20.23;;;;;;;;;;5095098;28;20058;-82
2021/11/27 06:41:57;;;;;;;23.40;17.42;;;;;;;;;;5095370;28;20478;-81
2021/11/27 06:44:23;;;;;;;23.30;17.65;;;;;;;;;;5095138;28;20024;-85
2021/11/27 06:46:49;;;;;;;19.95;16.33;;;;;;;;;;5095581;28;20101;-84
2021/11/27 06:49:15;;;;;;;28.23;22.55;;;;;;;;;;5093913;28;20020;-81
2021/11/27 06:51:41;;;;;;;32.70;27.77;;;;;;;;;;5093941;28;20035;-82
2021/11/27 06:54:08;;;;;;;27.40;20.77;;;;;;;;;;5095223;28;20032;-82
2021/11/27 06:56:34;;;;;;;42.17;27.33;;;;;;;;;;5094822;28;20405;-84
2021/11/27 06:59:00;;;;;;;20.42;14.90;;;;;;;;;;5095057;28;20028;-82
2021/11/27 07:01:26;;;;;;;12.20;9.43;;;;;;;;;;5093552;28;20066;-82
2021/11/27 07:03:52;;;;;;;12.05;9.02;;;;;;;;;;5095615;28;20059;-83
2021/11/27 07:06:18;;;;;;;9.07;7.93;;;;;;;;;;5094601;28;20024;-82
2021/11/27 07:08:44;;;;;;;20.00;14.73;;;;;;;;;;5093816;28;20028;-82
2021/11/27 07:11:10;;;;;;;32.28;24.23;;;;;;;;;;5094765;28;20458;-82
2021/11/27 07:13:39;;;;;;;13.93;11.35;;;;;;;;;;5095081;28;20028;-84
2021/11/27 07:16:05;;;;;;;8.50;6.75;;;;;;;;;;5093566;28;20059;-82
2021/11/27 07:18:31;;;;;;;7.25;6.15;;;;;;;;;;5094718;28;20431;-86
2021/11/27 07:20:57;;;;;;;8.88;5.95;;;;;;;;;;5093978;28;20104;-84
2021/11/27 07:23:23;;;;;;;8.13;6.32;;;;;;;;;;5093408;28;20444;-83
2021/11/27 07:25:50;;;;;;;7.03;5.43;;;;;;;;;;5093342;28;20437;-86
2021/11/27 07:28:16;;;;;;;6.68;5.68;;;;;;;;;;5094005;28;20027;-86
2021/11/27 07:30:42;;;;;;;8.70;5.63;;;;;;;;;;5094437;28;20062;-84
2021/11/27 07:33:08;;;;;;;6.28;5.03;;;;;;;;;;5094207;28;20040;-87
2021/11/27 07:35:34;;;;;;;6.93;5.10;;;;;;;;;;5094144;28;20020;-86
2021/11/27 07:38:01;;;;;;;5.32;4.82;;;;;;;;;;5094191;28;20378;-83
2021/11/27 07:40:27;;;;;;;5.10;4.60;;;;;;;;;;5093779;28;20044;-85
2021/11/27 07:42:53;;;;;;;7.35;4.45;;;;;;;;;;5094255;28;20039;-82
2021/11/27 07:45:20;;;;;;;5.43;4.28;;;;;;;;;;5094048;28;20483;-84
2021/11/27 07:47:46;;;;;;;5.53;4.10;;;;;;;;;;5092809;28;20039;-83
2021/11/27 07:50:12;;;;;;;8.88;5.97;;;;;;;;;;5094178;28;20585;-82
2021/11/27 07:52:38;;;;;;;7.78;5.13;;;;;;;;;;5093785;28;20024;-84
2021/11/27 07:55:05;;;;;;;7.13;5.38;;;;;;;;;;5093037;28;20043;-85
2021/11/27 07:57:31;;;;;;;7.32;5.18;;;;;;;;;;5093796;28;20032;-83
2021/11/27 07:59:57;;;;;;;7.85;5.45;;;;;;;;;;5094021;28;20438;-89
2021/11/27 08:02:23;;;;;;;9.38;6.22;;;;;;;;;;5094148;28;20028;-85
2021/11/27 08:04:49;;;;;;;7.20;4.78;;;;;;;;;;5093607;28;20024;-87
2021/11/27 08:07:15;;;;;;;16.65;11.52;;;;;;;;;;5092486;28;20052;-85
2021/11/27 08:09:41;;;;;;;71.25;54.20;;;;;;;;;;5093748;28;20448;-83
2021/11/27 08:12:08;;;;;;;14.40;10.63;;;;;;;;;;5092208;28;20024;-85
2021/11/27 08:14:34;;;;;;;10.00;6.40;;;;;;;;;;5093496;28;20027;-81
2021/11/27 08:17:01;;;;;;;5.65;4.60;;;;;;;;;;5093510;28;20108;-84
2021/11/27 08:19:28;;;;;;;5.28;4.57;;;;;;;;;;5093323;28;20484;-84
2021/11/27 08:21:54;;;;;;;6.43;4.65;;;;;;;;;;5092073;28;20036;-83
2021/11/27 08:24:20;;;;;;;5.57;4.65;;;;;;;;;;5093474;28;20050;-84
2021/11/27 08:26:47;;;;;;;8.63;5.75;;;;;;;;;;5092793;28;20024;-84
2021/11/27 08:29:13;;;;;;;10.23;4.85;;;;;;;;;;5093239;28;20032;-86
2021/11/27 08:31:39;;;;;;;6.47;4.03;;;;;;;;;;5091456;28;20036;-85
2021/11/27 08:34:06;;;;;;;5.32;3.50;;;;;;;;;;5093290;28;20024;-86
2021/11/27 08:36:32;;;;;;;6.00;4.22;;;;;;;;;;5093145;28;20410;-86
2021/11/27 08:39:00;;;;;;;4.38;2.80;;;;;;;;;;5093456;28;20519;-86
2021/11/27 08:41:26;;;;;;;3.95;3.08;;;;;;;;;;5093157;28;20110;-86
2021/11/27 08:43:52;;;;;;;14.32;10.15;;;;;;;;;;5093013;28;20038;-87
2021/11/27 08:46:18;;;;;;;18.05;11.95;;;;;;;;;;5092931;28;20032;-88
2021/11/27 08:48:44;;;;;;;15.35;12.00;;;;;;;;;;5092778;28;20118;-85
2021/11/27 08:51:12;;;;;;;6.93;4.57;;;;;;;;;;5091709;28;20397;-86
2021/11/27 08:53:39;;;;;;;7.47;5.03;;;;;;;;;;5092822;28;20089;-84
2021/11/27 08:56:07;;;;;;;9.15;6.82;;;;;;;;;;5092863;28;20521;-83
2021/11/27 08:58:33;;;;;;;18.60;12.55;;;;;;;;;;5091512;28;20032;-81
2021/11/27 09:00:59;;;;;;;14.57;11.02;;;;;;;;;;5092585;28;20040;-84
2021/11/27 09:03:25;;;;;;;6.75;5.10;;;;;;;;;;5092812;28;20060;-85
2021/11/27 09:05:51;;;;;;;6.72;4.70;;;;;;;;;;5092592;28;20035;-83
2021/11/27 09:08:19;;;;;;;5.07;4.10;;;;;;;;;;5092721;28;20028;-84
2021/11/27 09:10:46;;;;;;;7.07;4.70;;;;;;;;;;5091102;28;20037;-86
2021/11/27 09:13:12;;;;;;;5.30;3.97;;;;;;;;;;5092694;28;20032;-85
2021/11/27 09:15:38;;;;;;;7.32;5.28;;;;;;;;;;5092454;28;20103;-85
2021/11/27 09:18:04;;;;;;;6.18;5.00;;;;;;;;;;5092487;28;20032;-85
2021/11/27 09:20:33;;;;;;;6.28;5.20;;;;;;;;;;5092459;28;20028;-84
2021/11/27 09:23:00;;;;;;;5.57;4.88;;;;;;;;;;5090779;28;20032;-83
2021/11/27 09:25:28;;;;;;;5.97;5.20;;;;;;;;;;5091130;28;20031;-84
2021/11/27 09:27:57;;;;;;;5.60;4.40;;;;;;;;;;5092275;28;20035;-84
2021/11/27 09:30:23;;;;;;;7.35;5.65;;;;;;;;;;5092253;28;20026;-81
2021/11/27 09:32:50;;;;;;;6.43;4.60;;;;;;;;;;5092171;28;20441;-81
2021/11/27 09:35:16;;;;;;;6.35;4.95;;;;;;;;;;5092445;28;20036;-84
2021/11/27 09:37:42;;;;;;;5.20;4.70;;;;;;;;;;5092186;28;20027;-83
2021/11/27 09:40:10;;;;;;;6.03;5.03;;;;;;;;;;5092226;28;20031;-85
2021/11/27 09:42:36;;;;;;;6.93;4.53;;;;;;;;;;5094342;28;20389;-85
2021/11/27 09:45:03;;;;;;;7.07;4.47;;;;;;;;;;5096296;28;20459;-83
2021/11/27 09:47:30;;;;;;;8.20;4.07;;;;;;;;;;5096435;28;20043;-82
2021/11/27 09:49:56;;;;;;;5.22;3.88;;;;;;;;;;5096257;28;20020;-83
2021/11/27 09:52:23;;;;;;;6.68;4.50;;;;;;;;;;5096243;28;20016;-87
2021/11/27 09:54:49;;;;;;;5.13;4.55;;;;;;;;;;5096218;28;20502;-85
2021/11/27 09:57:15;;;;;;;4.40;4.00;;;;;;;;;;5096165;28;20048;-82
2021/11/27 09:59:42;;;;;;;4.90;3.80;;;;;;;;;;5096189;28;20028;-83
2021/11/27 10:02:10;;;;;;;6.43;3.38;;;;;;;;;;5095990;28;20043;-82
2021/11/27 10:04:38;;;;;;;5.78;3.85;;;;;;;;;;5096114;28;20119;-82
2021/11/27 10:07:04;;;;;;;3.80;3.40;;;;;;;;;;5095822;28;20020;-81
2021/11/27 10:09:31;;;;;;;14.20;10.93;;;;;;;;;;5094864;28;20028;-85
2021/11/27 10:11:57;;;;;;;13.52;8.68;;;;;;;;;;5095697;28;20047;-85
2021/11/27 10:14:24;;;;;;;5.43;4.63;;;;;;;;;;5095834;28;20086;-86
2021/11/27 10:17:10;;;;;;;6.18;2.90;;;;;;;;;;5095974;28;20024;-82
2021/11/27 10:19:36;;;;;;;6.47;3.75;;;;;;;;;;5095797;28;20032;-83
2021/11/27 10:22:02;;;;;;;4.75;3.20;;;;;;;;;;5095660;28;20032;-83
2021/11/27 10:24:31;;;;;;;5.63;3.30;;;;;;;;;;5095761;28;20043;-83
2021/11/27 10:27:00;;;;;;;4.38;3.25;;;;;;;;;;5095379;28;20024;-83
2021/11/27 10:29:32;;;;;;;4.07;2.90;;;;;;;;;;5094541;28;20028;-83
2021/11/27 10:32:17;;;;;;;5.18;2.65;;;;;;;;;;5095450;28;20060;-84
2021/11/27 10:34:50;;;;;;;4.18;2.55;;;;;;;;;;5095368;28;20032;-81
2021/11/27 10:37:25;;;;;;;5.67;3.93;;;;;;;;;;5095352;28;20152;-85
2021/11/27 10:39:55;;;;;;;4.65;3.25;;;;;;;;;;5094223;28;20027;-82
2021/11/27 10:42:21;;;;;;;3.75;2.65;;;;;;;;;;5095366;28;20229;-80
2021/11/27 10:44:51;;;;;;;4.50;2.72;;;;;;;;;;5095281;28;20099;-85
2021/11/27 10:47:18;;;;;;;3.50;1.95;;;;;;;;;;5095084;28;20023;-83
2021/11/27 10:49:44;;;;;;;2.90;2.17;;;;;;;;;;5095437;28;20024;-85
2021/11/27 10:52:22;;;;;;;4.95;2.33;;;;;;;;;;5095045;28;20027;-82
2021/11/27 10:55:06;;;;;;;3.08;2.10;;;;;;;;;;5094829;28;20020;-83
2021/11/27 10:57:34;;;;;;;3.45;1.65;;;;;;;;;;5095775;28;20059;-80
2021/11/27 11:00:26;;;;;;;3.30;2.13;;;;;;;;;;5095454;28;20103;-86
2021/11/27 11:02:53;;;;;;;3.70;1.98;;;;;;;;;;5094588;28;20367;-82
2021/11/27 11:05:20;;;;;;;3.50;2.10;;;;;;;;;;5097308;28;20489;-80
2021/11/27 11:07:54;;;;;;;3.05;1.83;;;;;;;;;;5099154;28;20032;-83
2021/11/27 11:10:21;;;;;;;3.33;1.80;;;;;;;;;;5095730;28;20020;-84
2021/11/27 11:12:52;;;;;;;2.53;2.20;;;;;;;;;;5093796;28;20032;-82
2021/11/27 11:15:19;;;;;;;4.03;2.45;;;;;;;;;;5094488;28;20047;-84
2021/11/27 11:17:46;;;;;;;4.60;1.88;;;;;;;;;;5094650;28;20077;-86
2021/11/27 11:20:23;;;;;;;8.80;2.97;;;;;;;;;;5093315;28;20559;-84
2021/11/27 11:23:07;;;;;;;3.53;2.33;;;;;;;;;;5094448;28;20032;-82
2021/11/27 11:25:33;;;;;;;;;;;;;;;;;;5095090;28;20024;-84
2021/11/27 11:28:09;;;;;;;3.55;1.60;;;;;;;;;;5093036;28;19904;-82
2021/11/27 11:30:37;;;;;;;2.63;1.60;;;;;;;;;;5093160;28;20028;-81
2021/11/27 11:33:04;;;;;;;2.20;1.70;;;;;;;;;;5093809;28;20052;-81
2021/11/27 11:35:32;;;;;;;2.55;1.85;;;;;;;;;;5094310;28;20022;-83
2021/11/27 11:37:58;;;;;;;1.67;1.27;;;;;;;;;;5094335;28;20016;-82
2021/11/27 11:40:24;;;;;;;1.88;1.60;;;;;;;;;;5094249;28;20024;-83
2021/11/27 11:42:50;;;;;;;3.75;1.80;;;;;;;;;;5093986;28;20106;-83
2021/11/27 11:45:16;;;;;;;35.45;22.70;;;;;;;;;;5094124;28;20031;-87
2021/11/27 11:47:42;;;;;;;15.63;10.93;;;;;;;;;;5094151;28;20081;-83
2021/11/27 11:50:11;;;;;;;7.10;4.82;;;;;;;;;;5094003;28;20024;-84
2021/11/27 11:52:47;;;;;;;3.30;2.08;;;;;;;;;;5094166;28;20055;-82
2021/11/27 11:55:15;;;;;;;2.75;1.85;;;;;;;;;;5094176;28;20056;-83
2021/11/27 11:57:44;;;;;;;19.98;14.90;;;;;;;;;;5093736;28;20033;-85
2021/11/27 12:00:34;;;;;;;9.70;6.22;;;;;;;;;;5093845;28;20024;-81
2021/11/27 12:03:18;;;;;;;20.40;12.00;;;;;;;;;;5083691;28;20383;-83
2021/11/27 12:05:44;;;;;;;;;;;;;;;;;;5093160;28;20055;-81
2021/11/27 12:08:12;;;;;;;6.25;2.10;;;;;;;;;;5093541;28;20324;-87
2021/11/27 12:10:45;;;;;;;4.18;2.08;;;;;;;;;;5092407;28;20026;-85
2021/11/27 12:13:11;;;;;;;4.35;2.00;;;;;;;;;;5093479;28;20031;-82
2021/11/27 12:15:39;;;;;;;3.17;2.00;;;;;;;;;;5092393;28;20020;-85
2021/11/27 12:18:07;;;;;;;3.67;2.20;;;;;;;;;;5093604;28;20023;-85
2021/11/27 12:20:44;;;;;;;3.85;1.92;;;;;;;;;;5093495;28;20052;-82
2021/11/27 12:23:31;;;;;;;2.40;2.10;;;;;;;;;;5092726;28;20081;-81
2021/11/27 12:26:10;;;;;;;4.00;1.50;;;;;;;;;;5093809;28;20020;-81
2021/11/27 12:28:37;;;;;;;4.07;2.88;;;;;;;;;;5092424;28;20024;-85
2021/11/27 12:31:25;;;;;;;4.00;2.78;;;;;;;;;;5092602;28;20028;-83
2021/11/27 12:33:58;;;;;;;3.38;1.83;;;;;;;;;;5093291;28;20512;-82
2021/11/27 12:36:28;;;;;;;2.05;1.38;;;;;;;;;;5094006;28;20066;-82
2021/11/27 12:38:55;;;;;;;4.07;2.33;;;;;;;;;;5093912;28;20071;-83
2021/11/27 12:41:25;;;;;;;3.83;2.30;;;;;;;;;;5091734;28;20036;-83
2021/11/27 12:44:11;;;;;;;5.35;3.03;;;;;;;;;;5093617;28;20056;-80
2021/11/27 12:46:37;;;;;;;4.97;2.35;;;;;;;;;;5093369;28;20028;-81
2021/11/27 12:49:04;;;;;;;5.85;2.35;;;;;;;;;;5091842;28;20035;-82
2021/11/27 12:51:30;;;;;;;4.88;2.42;;;;;;;;;;5091906;28;20062;-84
2021/11/27 12:54:02;;;;;;;4.13;2.60;;;;;;;;;;5093300;28;20386;-83
2021/11/27 12:56:29;;;;;;;6.47;2.35;;;;;;;;;;5093181;28;20031;-80
2021/11/27 12:58:59;;;;;;;4.93;2.70;;;;;;;;;;5093380;28;20024;-84
2021/11/27 13:01:26;;;;;;;3.50;2.28;;;;;;;;;;5093269;28;20040;-82
2021/11/27 13:03:53;;;;;;;6.63;2.50;;;;;;;;;;5093037;28;20039;-82
2021/11/27 13:06:19;;;;;;;3.40;2.15;;;;;;;;;;5093453;28;20025;-81
2021/11/27 13:08:45;;;;;;;4.55;2.67;;;;;;;;;;5093187;28;20031;-83
2021/11/27 13:11:13;;;;;;;5.00;2.85;;;;;;;;;;5094210;28;20024;-85
2021/11/27 13:13:41;;;;;;;7.20;4.05;;;;;;;;;;5093118;28;20547;-84
2021/11/27 13:16:12;;;;;;;8.80;3.78;;;;;;;;;;5094763;28;20027;-85
2021/11/27 13:18:45;;;;;;;6.10;3.17;;;;;;;;;;5093267;28;20035;-82
2021/11/27 13:21:11;;;;;;;3.25;2.22;;;;;;;;;;5092823;28;20115;-84
2021/11/27 13:23:40;;;;;;;6.18;2.97;;;;;;;;;;5092907;28;20078;-85
2021/11/27 13:26:26;;;;;;;4.85;2.38;;;;;;;;;;5092870;28;20031;-83
2021/11/27 13:28:54;;;;;;;6.05;3.38;;;;;;;;;;5093258;28;20107;-85
2021/11/27 13:31:31;;;;;;;3.53;2.15;;;;;;;;;;5091632;28;20038;-84
2021/11/27 13:33:58;;;;;;;4.88;3.10;;;;;;;;;;5093070;28;20491;-84
2021/11/27 13:36:24;;;;;;;3.00;2.50;;;;;;;;;;5093738;28;20055;-83
2021/11/27 13:38:53;;;;;;;4.38;2.03;;;;;;;;;;5092721;28;20024;-84
2021/11/27 13:41:19;;;;;;;4.07;2.50;;;;;;;;;;5092501;28;20036;-85
2021/11/27 13:44:03;;;;;;;5.72;2.85;;;;;;;;;;5092633;28;20028;-83
2021/11/27 13:46:30;;;;;;;;;;;;;;;;;;5093577;28;20027;-81
2021/11/27 13:49:14;;;;;;;5.28;3.00;;;;;;;;;;5092638;28;19951;-85
2021/11/27 13:51:42;;;;;;;7.03;6.07;;;;;;;;;;5091154;28;20390;-83
2021/11/27 13:54:08;;;;;;;22.58;13.85;;;;;;;;;;5092566;28;20062;-85
2021/11/27 13:56:37;;;;;;;7.78;4.88;;;;;;;;;;5092463;28;20020;-82
2021/11/27 13:59:03;;;;;;;7.70;4.63;;;;;;;;;;5091115;28;20032;-84
2021/11/27 14:01:30;;;;;;;6.63;2.90;;;;;;;;;;5091036;28;20046;-83
2021/11/27 14:03:56;;;;;;;5.68;3.65;;;;;;;;;;5091161;28;20024;-84
2021/11/27 14:06:23;;;;;;;3.42;2.75;;;;;;;;;;5091578;28;20031;-85
2021/11/27 14:08:53;;;;;;;4.22;2.38;;;;;;;;;;5091193;28;20028;-85
2021/11/27 14:11:19;;;;;;;4.82;2.15;;;;;;;;;;5091857;28;20028;-86
2021/11/27 14:14:12;;;;;;;4.40;2.10;;;;;;;;;;5092203;28;20036;-84
2021/11/27 14:16:50;;;;;;;4.40;2.05;;;;;;;;;;5088865;28;20063;-87
2021/11/27 14:19:21;;;;;;;4.07;2.47;;;;;;;;;;5091994;28;20023;-83
2021/11/27 14:22:03;;;;;;;4.10;2.33;;;;;;;;;;5090918;28;20462;-85
2021/11/27 14:24:29;;;;;;;5.60;2.47;;;;;;;;;;5090945;28;20024;-85
2021/11/27 14:27:03;;;;;;;5.57;3.35;;;;;;;;;;5092040;28;20394;-87
2021/11/27 14:29:29;;;;;;;6.45;3.28;;;;;;;;;;5094088;28;20060;-82
2021/11/27 14:31:55;;;;;;;4.63;2.60;;;;;;;;;;5095510;28;20052;-83
2021/11/27 14:34:31;;;;;;;6.50;3.13;;;;;;;;;;5094481;28;20032;-84
2021/11/27 14:37:02;;;;;;;7.65;3.72;;;;;;;;;;5095481;28;20057;-83
2021/11/27 14:39:28;;;;;;;5.07;2.78;;;;;;;;;;5095671;28;20035;-83
2021/11/27 14:42:08;;;;;;;3.70;2.33;;;;;;;;;;5095180;28;20380;-83
2021/11/27 14:44:36;;;;;;;5.93;2.75;;;;;;;;;;5094267;28;20032;-83
2021/11/27 14:47:05;;;;;;;3.58;2.20;;;;;;;;;;5093920;28;20111;-85
2021/11/27 14:49:38;;;;;;;5.43;3.10;;;;;;;;;;5093971;28;20424;-86
2021/11/27 14:52:23;;;;;;;3.60;2.38;;;;;;;;;;5095269;28;20103;-81
2021/11/27 14:54:51;;;;;;;4.72;2.38;;;;;;;;;;5095324;28;20024;-85
2021/11/27 14:57:19;;;;;;;4.75;2.45;;;;;;;;;;5093654;28;20390;-83
2021/11/27 14:59:52;;;;;;;3.75;2.15;;;;;;;;;;5093816;28;20028;-86
2021/11/27 15:02:19;;;;;;;6.32;2.10;;;;;;;;;;5093666;28;20036;-85
2021/11/27 15:04:45;;;;;;;4.68;2.35;;;;;;;;;;5095084;28;20028;-84